sensor_id;sensor_type;location;lat;lon;timestamp;P1;durP1;ratioP1;P2;durP2;ratioP2
29568;SDS011;16501;51.462;14.346;2023-11-21T00:01:34;8.10;;;2.78;;
29568;SDS011;16501;51.462;14.346;2023-11-21T00:03:59;7.50;;;2.53;;
29568;SDS011;16501;51.462;14.346;2023-11-21T00:06:26;8.35;;;2.20;;
29568;SDS011;16501;51.462;14.346;2023-11-21T00:08:51;10.55;;;2.65;;
29568;SDS011;16501;51.462;14.346;2023-11-21T00:11:17;7.10;;;2.55;;
29568;SDS011;16501;51.462;14.346;2023-11-21T00:13:42;13.23;;;4.05;;
29568;SDS011;16501;51.462;14.346;2023-11-21T00:16:07;11.07;;;2.70;;
29568;SDS011;16501;51.462;14.346;2023-11-21T00:18:32;8.15;;;2.50;;
29568;SDS011;16501;51.462;14.346;2023-11-21T00:20:58;6.53;;;2.20;;
29568;SDS011;16501;51.462;14.346;2023-11-21T00:23:24;8.20;;;2.65;;
29568;SDS011;16501;51.462;14.346;2023-11-21T00:25:49;8.32;;;2.33;;
29568;SDS011;16501;51.462;14.346;2023-11-21T00:28:14;9.82;;;2.17;;
29568;SDS011;16501;51.462;14.346;2023-11-21T00:30:40;8.98;;;5.05;;
29568;SDS011;16501;51.462;14.346;2023-11-21T00:33:05;4.22;;;2.10;;
29568;SDS011;16501;51.462;14.346;2023-11-21T00:35:30;11.30;;;2.30;;
29568;SDS011;16501;51.462;14.346;2023-11-21T00:37:55;5.57;;;2.30;;
29568;SDS011;16501;51.462;14.346;2023-11-21T00:40:21;5.30;;;2.47;;
29568;SDS011;16501;51.462;14.346;2023-11-21T00:42:47;6.55;;;2.25;;
29568;SDS011;16501;51.462;14.346;2023-11-21T00:45:12;17.60;;;2.70;;
29568;SDS011;16501;51.462;14.346;2023-11-21T00:47:40;8.65;;;2.53;;
29568;SDS011;16501;51.462;14.346;2023-11-21T00:50:05;4.53;;;2.10;;
29568;SDS011;16501;51.462;14.346;2023-11-21T00:52:31;11.45;;;2.53;;
29568;SDS011;16501;51.462;14.346;2023-11-21T00:54:57;8.07;;;2.75;;
29568;SDS011;16501;51.462;14.346;2023-11-21T00:57:24;6.65;;;3.13;;
29568;SDS011;16501;51.462;14.346;2023-11-21T00:59:50;5.38;;;2.33;;
29568;SDS011;16501;51.462;14.346;2023-11-21T01:02:15;6.70;;;2.55;;
29568;SDS011;16501;51.462;14.346;2023-11-21T01:04:40;8.40;;;2.15;;
29568;SDS011;16501;51.462;14.346;2023-11-21T01:07:05;9.35;;;2.40;;
29568;SDS011;16501;51.462;14.346;2023-11-21T01:09:31;10.02;;;2.13;;
29568;SDS011;16501;51.462;14.346;2023-11-21T01:11:56;5.70;;;2.42;;
29568;SDS011;16501;51.462;14.346;2023-11-21T01:14:22;6.80;;;2.35;;
29568;SDS011;16501;51.462;14.346;2023-11-21T01:16:47;4.20;;;2.30;;
29568;SDS011;16501;51.462;14.346;2023-11-21T01:19:13;9.55;;;2.65;;
29568;SDS011;16501;51.462;14.346;2023-11-21T01:21:39;9.82;;;2.45;;
29568;SDS011;16501;51.462;14.346;2023-11-21T01:24:04;8.43;;;2.30;;
29568;SDS011;16501;51.462;14.346;2023-11-21T01:26:32;5.40;;;2.45;;
29568;SDS011;16501;51.462;14.346;2023-11-21T01:28:57;8.07;;;2.67;;
29568;SDS011;16501;51.462;14.346;2023-11-21T01:31:22;8.15;;;2.60;;
29568;SDS011;16501;51.462;14.346;2023-11-21T01:33:47;11.85;;;2.83;;
29568;SDS011;16501;51.462;14.346;2023-11-21T01:36:13;10.35;;;2.88;;
29568;SDS011;16501;51.462;14.346;2023-11-21T01:38:38;7.22;;;3.13;;
29568;SDS011;16501;51.462;14.346;2023-11-21T01:41:04;13.02;;;2.90;;
29568;SDS011;16501;51.462;14.346;2023-11-21T01:43:30;4.05;;;2.15;;
29568;SDS011;16501;51.462;14.346;2023-11-21T01:45:57;8.60;;;2.50;;
29568;SDS011;16501;51.462;14.346;2023-11-21T01:48:23;4.97;;;2.25;;
29568;SDS011;16501;51.462;14.346;2023-11-21T01:50:49;6.00;;;2.10;;
29568;SDS011;16501;51.462;14.346;2023-11-21T01:53:15;7.75;;;2.53;;
29568;SDS011;16501;51.462;14.346;2023-11-21T01:55:41;8.45;;;2.20;;
29568;SDS011;16501;51.462;14.346;2023-11-21T01:58:07;7.70;;;2.22;;
29568;SDS011;16501;51.462;14.346;2023-11-21T02:00:33;7.93;;;2.45;;
29568;SDS011;16501;51.462;14.346;2023-11-21T02:02:59;7.13;;;2.20;;
29568;SDS011;16501;51.462;14.346;2023-11-21T02:05:24;4.75;;;2.33;;
29568;SDS011;16501;51.462;14.346;2023-11-21T02:07:51;4.75;;;2.78;;
29568;SDS011;16501;51.462;14.346;2023-11-21T02:10:17;8.52;;;2.75;;
29568;SDS011;16501;51.462;14.346;2023-11-21T02:12:47;6.72;;;2.55;;
29568;SDS011;16501;51.462;14.346;2023-11-21T02:15:13;8.10;;;2.72;;
29568;SDS011;16501;51.462;14.346;2023-11-21T02:20:11;10.68;;;2.30;;
29568;SDS011;16501;51.462;14.346;2023-11-21T02:22:40;6.28;;;2.65;;
29568;SDS011;16501;51.462;14.346;2023-11-21T02:25:07;9.07;;;2.92;;
29568;SDS011;16501;51.462;14.346;2023-11-21T02:27:32;7.53;;;2.63;;
29568;SDS011;16501;51.462;14.346;2023-11-21T02:29:58;6.70;;;3.08;;
29568;SDS011;16501;51.462;14.346;2023-11-21T02:32:23;4.97;;;2.35;;
29568;SDS011;16501;51.462;14.346;2023-11-21T02:34:50;6.00;;;2.15;;
29568;SDS011;16501;51.462;14.346;2023-11-21T02:37:16;10.25;;;2.63;;
29568;SDS011;16501;51.462;14.346;2023-11-21T02:39:41;12.38;;;2.42;;
29568;SDS011;16501;51.462;14.346;2023-11-21T02:42:07;7.38;;;2.60;;
29568;SDS011;16501;51.462;14.346;2023-11-21T02:44:32;11.15;;;3.30;;
29568;SDS011;16501;51.462;14.346;2023-11-21T02:46:57;11.80;;;5.15;;
29568;SDS011;16501;51.462;14.346;2023-11-21T02:49:25;15.35;;;2.78;;
29568;SDS011;16501;51.462;14.346;2023-11-21T02:51:53;6.03;;;2.72;;
29568;SDS011;16501;51.462;14.346;2023-11-21T02:54:19;7.30;;;2.40;;
29568;SDS011;16501;51.462;14.346;2023-11-21T02:56:46;7.93;;;2.38;;
29568;SDS011;16501;51.462;14.346;2023-11-21T02:59:12;5.85;;;2.40;;
29568;SDS011;16501;51.462;14.346;2023-11-21T03:01:37;9.32;;;3.00;;
29568;SDS011;16501;51.462;14.346;2023-11-21T03:04:03;13.18;;;2.80;;
29568;SDS011;16501;51.462;14.346;2023-11-21T03:06:28;11.48;;;3.50;;
29568;SDS011;16501;51.462;14.346;2023-11-21T03:08:53;9.30;;;2.88;;
29568;SDS011;16501;51.462;14.346;2023-11-21T03:11:19;5.90;;;2.90;;
29568;SDS011;16501;51.462;14.346;2023-11-21T03:13:44;6.15;;;2.45;;
29568;SDS011;16501;51.462;14.346;2023-11-21T03:16:10;5.85;;;3.38;;
29568;SDS011;16501;51.462;14.346;2023-11-21T03:18:36;5.43;;;2.42;;
29568;SDS011;16501;51.462;14.346;2023-11-21T03:21:03;5.75;;;2.28;;
29568;SDS011;16501;51.462;14.346;2023-11-21T03:23:29;8.43;;;3.03;;
29568;SDS011;16501;51.462;14.346;2023-11-21T03:25:54;7.18;;;2.80;;
29568;SDS011;16501;51.462;14.346;2023-11-21T03:28:19;7.15;;;2.70;;
29568;SDS011;16501;51.462;14.346;2023-11-21T03:30:45;11.57;;;3.42;;
29568;SDS011;16501;51.462;14.346;2023-11-21T03:33:10;5.07;;;2.50;;
29568;SDS011;16501;51.462;14.346;2023-11-21T03:35:35;8.70;;;3.53;;
29568;SDS011;16501;51.462;14.346;2023-11-21T03:38:01;8.80;;;3.85;;
29568;SDS011;16501;51.462;14.346;2023-11-21T03:40:26;8.32;;;2.92;;
29568;SDS011;16501;51.462;14.346;2023-11-21T03:42:52;10.98;;;2.80;;
29568;SDS011;16501;51.462;14.346;2023-11-21T03:45:17;6.57;;;2.90;;
29568;SDS011;16501;51.462;14.346;2023-11-21T03:47:42;8.32;;;2.83;;
29568;SDS011;16501;51.462;14.346;2023-11-21T03:50:08;7.60;;;2.78;;
29568;SDS011;16501;51.462;14.346;2023-11-21T03:52:34;11.20;;;3.28;;
29568;SDS011;16501;51.462;14.346;2023-11-21T03:55:00;7.15;;;2.92;;
29568;SDS011;16501;51.462;14.346;2023-11-21T03:57:25;5.53;;;3.08;;
29568;SDS011;16501;51.462;14.346;2023-11-21T03:59:51;7.25;;;3.13;;
29568;SDS011;16501;51.462;14.346;2023-11-21T04:02:16;9.18;;;2.83;;
29568;SDS011;16501;51.462;14.346;2023-11-21T04:04:42;9.80;;;3.47;;
29568;SDS011;16501;51.462;14.346;2023-11-21T04:07:07;6.10;;;2.78;;
29568;SDS011;16501;51.462;14.346;2023-11-21T04:09:32;10.07;;;2.75;;
29568;SDS011;16501;51.462;14.346;2023-11-21T04:11:58;12.18;;;2.95;;
29568;SDS011;16501;51.462;14.346;2023-11-21T04:14:23;8.05;;;3.97;;
29568;SDS011;16501;51.462;14.346;2023-11-21T04:16:49;5.78;;;2.83;;
29568;SDS011;16501;51.462;14.346;2023-11-21T04:19:14;6.43;;;3.05;;
29568;SDS011;16501;51.462;14.346;2023-11-21T04:21:40;11.10;;;3.25;;
29568;SDS011;16501;51.462;14.346;2023-11-21T04:24:06;7.82;;;3.10;;
29568;SDS011;16501;51.462;14.346;2023-11-21T04:26:31;4.97;;;3.00;;
29568;SDS011;16501;51.462;14.346;2023-11-21T04:28:57;14.98;;;3.90;;
29568;SDS011;16501;51.462;14.346;2023-11-21T04:31:22;7.88;;;3.13;;
29568;SDS011;16501;51.462;14.346;2023-11-21T04:33:47;6.10;;;3.35;;
29568;SDS011;16501;51.462;14.346;2023-11-21T04:36:12;9.18;;;3.67;;
29568;SDS011;16501;51.462;14.346;2023-11-21T04:38:38;12.30;;;3.60;;
29568;SDS011;16501;51.462;14.346;2023-11-21T04:41:03;9.48;;;3.97;;
29568;SDS011;16501;51.462;14.346;2023-11-21T04:43:28;8.23;;;4.28;;
29568;SDS011;16501;51.462;14.346;2023-11-21T04:45:54;7.82;;;3.92;;
29568;SDS011;16501;51.462;14.346;2023-11-21T04:48:20;10.35;;;4.07;;
29568;SDS011;16501;51.462;14.346;2023-11-21T04:50:45;11.52;;;4.30;;
29568;SDS011;16501;51.462;14.346;2023-11-21T04:53:10;8.40;;;3.63;;
29568;SDS011;16501;51.462;14.346;2023-11-21T04:55:38;11.35;;;4.50;;
29568;SDS011;16501;51.462;14.346;2023-11-21T04:58:03;9.73;;;4.22;;
29568;SDS011;16501;51.462;14.346;2023-11-21T05:00:29;11.50;;;4.20;;
29568;SDS011;16501;51.462;14.346;2023-11-21T05:02:54;11.90;;;4.53;;
29568;SDS011;16501;51.462;14.346;2023-11-21T05:05:19;11.38;;;4.55;;
29568;SDS011;16501;51.462;14.346;2023-11-21T05:07:45;8.55;;;4.45;;
29568;SDS011;16501;51.462;14.346;2023-11-21T05:10:10;11.95;;;4.80;;
29568;SDS011;16501;51.462;14.346;2023-11-21T05:12:37;8.95;;;4.75;;
29568;SDS011;16501;51.462;14.346;2023-11-21T05:15:06;10.50;;;4.38;;
29568;SDS011;16501;51.462;14.346;2023-11-21T05:17:34;11.25;;;5.20;;
29568;SDS011;16501;51.462;14.346;2023-11-21T05:20:00;13.32;;;4.55;;
29568;SDS011;16501;51.462;14.346;2023-11-21T05:22:28;7.97;;;4.32;;
29568;SDS011;16501;51.462;14.346;2023-11-21T05:24:53;13.00;;;5.20;;
29568;SDS011;16501;51.462;14.346;2023-11-21T05:27:19;13.35;;;4.57;;
29568;SDS011;16501;51.462;14.346;2023-11-21T05:29:44;14.68;;;5.50;;
29568;SDS011;16501;51.462;14.346;2023-11-21T05:32:11;12.43;;;5.05;;
29568;SDS011;16501;51.462;14.346;2023-11-21T05:34:37;10.85;;;4.55;;
29568;SDS011;16501;51.462;14.346;2023-11-21T05:37:02;13.68;;;5.75;;
29568;SDS011;16501;51.462;14.346;2023-11-21T05:39:27;9.80;;;4.70;;
29568;SDS011;16501;51.462;14.346;2023-11-21T05:41:52;9.38;;;4.57;;
29568;SDS011;16501;51.462;14.346;2023-11-21T05:44:18;10.35;;;5.70;;
29568;SDS011;16501;51.462;14.346;2023-11-21T05:46:44;15.30;;;5.32;;
29568;SDS011;16501;51.462;14.346;2023-11-21T05:49:09;11.40;;;4.63;;
29568;SDS011;16501;51.462;14.346;2023-11-21T05:51:34;17.35;;;6.22;;
29568;SDS011;16501;51.462;14.346;2023-11-21T05:53:59;14.38;;;5.43;;
29568;SDS011;16501;51.462;14.346;2023-11-21T05:56:25;14.95;;;5.07;;
29568;SDS011;16501;51.462;14.346;2023-11-21T05:58:50;12.63;;;5.53;;
29568;SDS011;16501;51.462;14.346;2023-11-21T06:01:16;12.38;;;5.05;;
29568;SDS011;16501;51.462;14.346;2023-11-21T06:03:41;12.50;;;4.80;;
29568;SDS011;16501;51.462;14.346;2023-11-21T06:06:06;11.48;;;5.35;;
29568;SDS011;16501;51.462;14.346;2023-11-21T06:08:32;11.18;;;5.10;;
29568;SDS011;16501;51.462;14.346;2023-11-21T06:10:57;14.50;;;5.57;;
29568;SDS011;16501;51.462;14.346;2023-11-21T06:13:22;17.15;;;4.82;;
29568;SDS011;16501;51.462;14.346;2023-11-21T06:15:50;16.38;;;5.38;;
29568;SDS011;16501;51.462;14.346;2023-11-21T06:18:18;21.13;;;5.22;;
29568;SDS011;16501;51.462;14.346;2023-11-21T06:20:46;15.57;;;5.78;;
29568;SDS011;16501;51.462;14.346;2023-11-21T06:23:12;16.70;;;5.82;;
29568;SDS011;16501;51.462;14.346;2023-11-21T06:25:37;15.68;;;9.18;;
29568;SDS011;16501;51.462;14.346;2023-11-21T06:28:02;15.80;;;7.53;;
29568;SDS011;16501;51.462;14.346;2023-11-21T06:30:28;12.80;;;5.80;;
29568;SDS011;16501;51.462;14.346;2023-11-21T06:32:54;15.23;;;5.95;;
29568;SDS011;16501;51.462;14.346;2023-11-21T06:35:20;17.77;;;6.18;;
29568;SDS011;16501;51.462;14.346;2023-11-21T06:37:45;13.57;;;6.07;;
29568;SDS011;16501;51.462;14.346;2023-11-21T06:40:12;14.52;;;6.38;;
29568;SDS011;16501;51.462;14.346;2023-11-21T06:42:40;15.98;;;6.95;;
29568;SDS011;16501;51.462;14.346;2023-11-21T06:45:06;12.90;;;5.68;;
29568;SDS011;16501;51.462;14.346;2023-11-21T06:47:32;14.20;;;5.65;;
29568;SDS011;16501;51.462;14.346;2023-11-21T06:49:57;9.98;;;5.85;;
29568;SDS011;16501;51.462;14.346;2023-11-21T06:52:24;14.45;;;5.32;;
29568;SDS011;16501;51.462;14.346;2023-11-21T06:54:50;13.05;;;5.32;;
29568;SDS011;16501;51.462;14.346;2023-11-21T06:57:15;9.48;;;5.13;;
29568;SDS011;16501;51.462;14.346;2023-11-21T06:59:40;11.68;;;4.70;;
29568;SDS011;16501;51.462;14.346;2023-11-21T07:02:06;8.43;;;4.82;;
29568;SDS011;16501;51.462;14.346;2023-11-21T07:04:35;9.45;;;5.43;;
29568;SDS011;16501;51.462;14.346;2023-11-21T07:07:01;7.65;;;5.63;;
29568;SDS011;16501;51.462;14.346;2023-11-21T07:09:27;11.98;;;6.43;;
29568;SDS011;16501;51.462;14.346;2023-11-21T07:11:53;16.33;;;6.05;;
29568;SDS011;16501;51.462;14.346;2023-11-21T07:14:19;11.88;;;4.70;;
29568;SDS011;16501;51.462;14.346;2023-11-21T07:16:44;9.23;;;4.65;;
29568;SDS011;16501;51.462;14.346;2023-11-21T07:19:10;5.15;;;2.35;;
29568;SDS011;16501;51.462;14.346;2023-11-21T07:21:37;4.80;;;2.45;;
29568;SDS011;16501;51.462;14.346;2023-11-21T07:24:03;3.03;;;2.13;;
29568;SDS011;16501;51.462;14.346;2023-11-21T07:26:29;4.10;;;1.95;;
29568;SDS011;16501;51.462;14.346;2023-11-21T07:28:54;4.80;;;2.33;;
29568;SDS011;16501;51.462;14.346;2023-11-21T07:31:20;4.30;;;1.92;;
29568;SDS011;16501;51.462;14.346;2023-11-21T07:33:46;2.60;;;2.25;;
29568;SDS011;16501;51.462;14.346;2023-11-21T07:36:12;1.90;;;1.70;;
29568;SDS011;16501;51.462;14.346;2023-11-21T07:38:38;1.67;;;1.40;;
29568;SDS011;16501;51.462;14.346;2023-11-21T07:41:04;3.72;;;2.55;;
29568;SDS011;16501;51.462;14.346;2023-11-21T07:43:29;5.78;;;2.95;;
29568;SDS011;16501;51.462;14.346;2023-11-21T07:45:59;3.47;;;2.40;;
29568;SDS011;16501;51.462;14.346;2023-11-21T07:48:25;4.32;;;2.03;;
29568;SDS011;16501;51.462;14.346;2023-11-21T07:50:51;2.22;;;1.75;;
29568;SDS011;16501;51.462;14.346;2023-11-21T07:53:16;3.70;;;2.47;;
29568;SDS011;16501;51.462;14.346;2023-11-21T07:55:41;2.67;;;2.35;;
29568;SDS011;16501;51.462;14.346;2023-11-21T07:58:07;4.28;;;2.35;;
29568;SDS011;16501;51.462;14.346;2023-11-21T08:00:32;4.07;;;2.60;;
29568;SDS011;16501;51.462;14.346;2023-11-21T08:02:58;4.75;;;2.90;;
29568;SDS011;16501;51.462;14.346;2023-11-21T08:05:23;5.13;;;3.38;;
29568;SDS011;16501;51.462;14.346;2023-11-21T08:07:49;4.05;;;3.03;;
29568;SDS011;16501;51.462;14.346;2023-11-21T08:10:15;2.88;;;2.45;;
29568;SDS011;16501;51.462;14.346;2023-11-21T08:12:41;3.28;;;2.22;;
29568;SDS011;16501;51.462;14.346;2023-11-21T08:15:07;2.40;;;2.08;;
29568;SDS011;16501;51.462;14.346;2023-11-21T08:17:34;3.50;;;1.70;;
29568;SDS011;16501;51.462;14.346;2023-11-21T08:20:00;3.58;;;1.92;;
29568;SDS011;16501;51.462;14.346;2023-11-21T08:22:25;2.47;;;1.70;;
29568;SDS011;16501;51.462;14.346;2023-11-21T08:24:50;2.08;;;1.40;;
29568;SDS011;16501;51.462;14.346;2023-11-21T08:27:15;3.13;;;2.03;;
29568;SDS011;16501;51.462;14.346;2023-11-21T08:29:41;1.48;;;1.38;;
29568;SDS011;16501;51.462;14.346;2023-11-21T08:32:07;3.35;;;1.65;;
29568;SDS011;16501;51.462;14.346;2023-11-21T08:34:32;2.33;;;1.70;;
29568;SDS011;16501;51.462;14.346;2023-11-21T08:36:58;5.43;;;1.73;;
29568;SDS011;16501;51.462;14.346;2023-11-21T08:39:23;3.22;;;1.98;;
29568;SDS011;16501;51.462;14.346;2023-11-21T08:41:49;4.15;;;2.47;;
29568;SDS011;16501;51.462;14.346;2023-11-21T08:44:17;5.35;;;2.70;;
29568;SDS011;16501;51.462;14.346;2023-11-21T08:46:45;4.47;;;2.92;;
29568;SDS011;16501;51.462;14.346;2023-11-21T08:49:11;8.40;;;4.40;;
29568;SDS011;16501;51.462;14.346;2023-11-21T08:51:37;7.15;;;4.57;;
29568;SDS011;16501;51.462;14.346;2023-11-21T08:54:03;8.15;;;5.35;;
29568;SDS011;16501;51.462;14.346;2023-11-21T08:56:32;7.85;;;5.15;;
29568;SDS011;16501;51.462;14.346;2023-11-21T08:58:57;15.35;;;8.32;;
29568;SDS011;16501;51.462;14.346;2023-11-21T09:01:23;12.25;;;6.72;;
29568;SDS011;16501;51.462;14.346;2023-11-21T09:03:48;15.43;;;8.38;;
29568;SDS011;16501;51.462;14.346;2023-11-21T09:06:15;17.27;;;9.32;;
29568;SDS011;16501;51.462;14.346;2023-11-21T09:08:40;15.70;;;8.38;;
29568;SDS011;16501;51.462;14.346;2023-11-21T09:11:06;15.68;;;8.23;;
29568;SDS011;16501;51.462;14.346;2023-11-21T09:13:33;18.85;;;9.80;;
29568;SDS011;16501;51.462;14.346;2023-11-21T09:15:58;21.95;;;10.55;;
29568;SDS011;16501;51.462;14.346;2023-11-21T09:18:23;21.30;;;11.10;;
29568;SDS011;16501;51.462;14.346;2023-11-21T09:20:48;25.65;;;12.98;;
29568;SDS011;16501;51.462;14.346;2023-11-21T09:23:14;31.98;;;13.75;;
29568;SDS011;16501;51.462;14.346;2023-11-21T09:25:39;34.53;;;14.80;;
29568;SDS011;16501;51.462;14.346;2023-11-21T09:28:05;49.90;;;15.38;;
29568;SDS011;16501;51.462;14.346;2023-11-21T09:30:33;38.03;;;17.88;;
29568;SDS011;16501;51.462;14.346;2023-11-21T09:32:59;42.92;;;18.17;;
29568;SDS011;16501;51.462;14.346;2023-11-21T09:35:24;34.65;;;15.70;;
29568;SDS011;16501;51.462;14.346;2023-11-21T09:37:49;41.83;;;17.42;;
29568;SDS011;16501;51.462;14.346;2023-11-21T09:40:16;41.63;;;16.95;;
29568;SDS011;16501;51.462;14.346;2023-11-21T09:42:56;36.65;;;15.02;;
29568;SDS011;16501;51.462;14.346;2023-11-21T09:45:25;26.02;;;12.48;;
29568;SDS011;16501;51.462;14.346;2023-11-21T09:47:56;22.25;;;11.57;;
29568;SDS011;16501;51.462;14.346;2023-11-21T09:50:22;23.88;;;11.20;;
29568;SDS011;16501;51.462;14.346;2023-11-21T09:53:07;20.25;;;10.45;;
29568;SDS011;16501;51.462;14.346;2023-11-21T09:55:39;20.05;;;10.65;;
29568;SDS011;16501;51.462;14.346;2023-11-21T09:58:11;19.63;;;9.87;;
29568;SDS011;16501;51.462;14.346;2023-11-21T10:00:40;15.45;;;9.35;;
29568;SDS011;16501;51.462;14.346;2023-11-21T10:03:07;18.05;;;9.75;;
29568;SDS011;16501;51.462;14.346;2023-11-21T10:05:33;19.98;;;10.98;;
29568;SDS011;16501;51.462;14.346;2023-11-21T10:07:59;25.08;;;11.63;;
29568;SDS011;16501;51.462;14.346;2023-11-21T10:10:24;21.98;;;10.30;;
29568;SDS011;16501;51.462;14.346;2023-11-21T10:12:50;19.15;;;9.52;;
29568;SDS011;16501;51.462;14.346;2023-11-21T10:15:22;20.98;;;10.30;;
29568;SDS011;16501;51.462;14.346;2023-11-21T10:17:50;22.83;;;10.75;;
29568;SDS011;16501;51.462;14.346;2023-11-21T10:20:18;19.42;;;11.50;;
29568;SDS011;16501;51.462;14.346;2023-11-21T10:22:44;24.70;;;11.05;;
29568;SDS011;16501;51.462;14.346;2023-11-21T10:25:11;26.02;;;10.98;;
29568;SDS011;16501;51.462;14.346;2023-11-21T10:27:39;22.48;;;11.52;;
29568;SDS011;16501;51.462;14.346;2023-11-21T10:30:05;24.95;;;11.90;;
29568;SDS011;16501;51.462;14.346;2023-11-21T10:32:32;22.20;;;10.30;;
29568;SDS011;16501;51.462;14.346;2023-11-21T10:35:01;21.88;;;10.07;;
29568;SDS011;16501;51.462;14.346;2023-11-21T10:37:31;20.73;;;10.82;;
29568;SDS011;16501;51.462;14.346;2023-11-21T10:39:59;20.70;;;9.25;;
29568;SDS011;16501;51.462;14.346;2023-11-21T10:42:25;20.33;;;10.02;;
29568;SDS011;16501;51.462;14.346;2023-11-21T10:44:51;24.27;;;10.20;;
29568;SDS011;16501;51.462;14.346;2023-11-21T10:47:16;26.08;;;11.68;;
29568;SDS011;16501;51.462;14.346;2023-11-21T10:49:44;22.80;;;12.32;;
29568;SDS011;16501;51.462;14.346;2023-11-21T10:52:09;25.75;;;11.30;;
29568;SDS011;16501;51.462;14.346;2023-11-21T10:54:54;20.33;;;10.45;;
29568;SDS011;16501;51.462;14.346;2023-11-21T10:57:19;22.13;;;10.48;;
29568;SDS011;16501;51.462;14.346;2023-11-21T10:59:48;22.98;;;11.38;;
29568;SDS011;16501;51.462;14.346;2023-11-21T11:02:23;21.55;;;10.55;;
29568;SDS011;16501;51.462;14.346;2023-11-21T11:04:53;15.70;;;9.50;;
29568;SDS011;16501;51.462;14.346;2023-11-21T11:07:25;18.35;;;9.93;;
29568;SDS011;16501;51.462;14.346;2023-11-21T11:09:52;15.85;;;9.27;;
29568;SDS011;16501;51.462;14.346;2023-11-21T11:12:19;18.63;;;9.05;;
29568;SDS011;16501;51.462;14.346;2023-11-21T11:14:45;16.73;;;9.13;;
29568;SDS011;16501;51.462;14.346;2023-11-21T11:17:10;22.92;;;10.82;;
29568;SDS011;16501;51.462;14.346;2023-11-21T11:19:36;20.52;;;10.35;;
29568;SDS011;16501;51.462;14.346;2023-11-21T11:25:23;18.73;;;9.77;;
29568;SDS011;16501;51.462;14.346;2023-11-21T11:28:01;24.15;;;11.65;;
29568;SDS011;16501;51.462;14.346;2023-11-21T11:30:46;21.35;;;10.75;;
29568;SDS011;16501;51.462;14.346;2023-11-21T11:36:15;20.80;;;10.50;;
29568;SDS011;16501;51.462;14.346;2023-11-21T11:38:47;22.42;;;11.15;;
29568;SDS011;16501;51.462;14.346;2023-11-21T11:41:23;22.00;;;10.77;;
29568;SDS011;16501;51.462;14.346;2023-11-21T11:43:54;23.92;;;10.90;;
29568;SDS011;16501;51.462;14.346;2023-11-21T11:46:20;23.65;;;10.63;;
29568;SDS011;16501;51.462;14.346;2023-11-21T11:48:48;19.27;;;9.27;;
29568;SDS011;16501;51.462;14.346;2023-11-21T11:51:27;15.00;;;8.85;;
29568;SDS011;16501;51.462;14.346;2023-11-21T11:53:52;17.35;;;10.35;;
29568;SDS011;16501;51.462;14.346;2023-11-21T11:56:21;19.90;;;9.15;;
29568;SDS011;16501;51.462;14.346;2023-11-21T11:58:48;13.57;;;8.43;;
29568;SDS011;16501;51.462;14.346;2023-11-21T12:01:13;13.88;;;8.75;;
29568;SDS011;16501;51.462;14.346;2023-11-21T12:03:42;11.73;;;7.28;;
29568;SDS011;16501;51.462;14.346;2023-11-21T12:06:08;12.10;;;7.78;;
29568;SDS011;16501;51.462;14.346;2023-11-21T12:08:36;11.98;;;7.05;;
29568;SDS011;16501;51.462;14.346;2023-11-21T12:11:02;9.93;;;6.22;;
29568;SDS011;16501;51.462;14.346;2023-11-21T12:13:27;10.75;;;6.72;;
29568;SDS011;16501;51.462;14.346;2023-11-21T12:15:53;12.07;;;6.70;;
29568;SDS011;16501;51.462;14.346;2023-11-21T12:18:19;11.85;;;6.55;;
29568;SDS011;16501;51.462;14.346;2023-11-21T12:20:46;12.65;;;5.72;;
29568;SDS011;16501;51.462;14.346;2023-11-21T12:23:13;10.85;;;6.15;;
29568;SDS011;16501;51.462;14.346;2023-11-21T12:25:41;8.68;;;5.88;;
29568;SDS011;16501;51.462;14.346;2023-11-21T12:28:08;13.20;;;7.47;;
29568;SDS011;16501;51.462;14.346;2023-11-21T12:30:34;23.08;;;12.20;;
29568;SDS011;16501;51.462;14.346;2023-11-21T12:33:00;13.57;;;8.77;;
29568;SDS011;16501;51.462;14.346;2023-11-21T12:35:30;10.70;;;6.57;;
29568;SDS011;16501;51.462;14.346;2023-11-21T12:37:59;8.98;;;6.07;;
29568;SDS011;16501;51.462;14.346;2023-11-21T12:40:25;12.75;;;6.47;;
29568;SDS011;16501;51.462;14.346;2023-11-21T12:42:55;8.18;;;6.15;;
29568;SDS011;16501;51.462;14.346;2023-11-21T12:45:22;10.50;;;5.85;;
29568;SDS011;16501;51.462;14.346;2023-11-21T12:47:56;10.32;;;6.15;;
29568;SDS011;16501;51.462;14.346;2023-11-21T12:50:26;8.70;;;4.20;;
29568;SDS011;16501;51.462;14.346;2023-11-21T12:52:59;5.90;;;3.70;;
29568;SDS011;16501;51.462;14.346;2023-11-21T12:55:33;11.02;;;4.25;;
29568;SDS011;16501;51.462;14.346;2023-11-21T12:58:02;11.38;;;6.10;;
29568;SDS011;16501;51.462;14.346;2023-11-21T13:00:38;6.53;;;3.92;;
29568;SDS011;16501;51.462;14.346;2023-11-21T13:03:08;11.85;;;6.43;;
29568;SDS011;16501;51.462;14.346;2023-11-21T13:05:39;4.10;;;2.85;;
29568;SDS011;16501;51.462;14.346;2023-11-21T13:08:09;6.30;;;3.30;;
29568;SDS011;16501;51.462;14.346;2023-11-21T13:10:38;3.95;;;2.28;;
29568;SDS011;16501;51.462;14.346;2023-11-21T13:13:05;2.78;;;1.80;;
29568;SDS011;16501;51.462;14.346;2023-11-21T13:15:38;4.10;;;3.15;;
29568;SDS011;16501;51.462;14.346;2023-11-21T13:18:06;2.47;;;1.90;;
29568;SDS011;16501;51.462;14.346;2023-11-21T13:20:45;8.18;;;1.70;;
29568;SDS011;16501;51.462;14.346;2023-11-21T13:23:11;14.55;;;9.75;;
29568;SDS011;16501;51.462;14.346;2023-11-21T13:25:37;26.75;;;17.73;;
29568;SDS011;16501;51.462;14.346;2023-11-21T13:28:04;9.93;;;6.35;;
29568;SDS011;16501;51.462;14.346;2023-11-21T13:30:30;2.83;;;2.50;;
29568;SDS011;16501;51.462;14.346;2023-11-21T13:33:01;3.63;;;3.25;;
29568;SDS011;16501;51.462;14.346;2023-11-21T13:35:31;3.33;;;2.63;;
29568;SDS011;16501;51.462;14.346;2023-11-21T13:38:06;2.85;;;2.28;;
29568;SDS011;16501;51.462;14.346;2023-11-21T13:40:33;5.40;;;2.13;;
29568;SDS011;16501;51.462;14.346;2023-11-21T13:43:05;7.20;;;4.10;;
29568;SDS011;16501;51.462;14.346;2023-11-21T13:45:42;3.80;;;2.85;;
29568;SDS011;16501;51.462;14.346;2023-11-21T13:48:09;4.63;;;2.88;;
29568;SDS011;16501;51.462;14.346;2023-11-21T13:50:38;3.03;;;2.17;;
29568;SDS011;16501;51.462;14.346;2023-11-21T13:53:11;2.80;;;1.80;;
29568;SDS011;16501;51.462;14.346;2023-11-21T13:55:51;4.20;;;2.90;;
29568;SDS011;16501;51.462;14.346;2023-11-21T13:58:22;3.92;;;1.63;;
29568;SDS011;16501;51.462;14.346;2023-11-21T14:00:53;2.05;;;1.45;;
29568;SDS011;16501;51.462;14.346;2023-11-21T14:03:21;2.80;;;1.40;;
29568;SDS011;16501;51.462;14.346;2023-11-21T14:06:02;2.80;;;2.10;;
29568;SDS011;16501;51.462;14.346;2023-11-21T14:08:33;2.55;;;1.48;;
29568;SDS011;16501;51.462;14.346;2023-11-21T14:10:59;2.42;;;1.60;;
29568;SDS011;16501;51.462;14.346;2023-11-21T14:13:25;2.17;;;1.52;;
29568;SDS011;16501;51.462;14.346;2023-11-21T14:15:51;2.35;;;1.33;;
29568;SDS011;16501;51.462;14.346;2023-11-21T14:18:22;3.55;;;1.58;;
29568;SDS011;16501;51.462;14.346;2023-11-21T14:20:56;3.92;;;2.17;;
29568;SDS011;16501;51.462;14.346;2023-11-21T14:23:22;2.38;;;1.63;;
29568;SDS011;16501;51.462;14.346;2023-11-21T14:25:48;5.57;;;2.30;;
29568;SDS011;16501;51.462;14.346;2023-11-21T14:28:14;6.05;;;2.35;;
29568;SDS011;16501;51.462;14.346;2023-11-21T14:30:40;3.40;;;2.35;;
29568;SDS011;16501;51.462;14.346;2023-11-21T14:33:07;2.72;;;1.92;;